createdAt,value
2022-10-23T00:29:16.724Z,84.65
2022-10-23T00:51:00.049Z,84.53
2022-10-23T01:12:50.423Z,84.53
2022-10-23T01:34:43.639Z,84.53
2022-10-23T01:56:32.688Z,84.26
2022-10-23T02:22:29.417Z,84.92
2022-10-23T02:44:23.003Z,85.85
2022-10-23T03:06:07.803Z,86.79
2022-10-23T03:27:51.356Z,85.78
2022-10-23T03:49:34.727Z,85.06
2022-10-23T04:11:21.313Z,84.93
2022-10-23T04:33:04.674Z,84.88
2022-10-23T04:54:48.134Z,84.66
2022-10-23T05:16:50.214Z,86.15
2022-10-23T05:38:35.432Z,86.36
2022-10-23T06:00:26.312Z,85.09
2022-10-23T06:22:17.734Z,85.51
2022-10-23T06:44:08.543Z,85.73
2022-10-23T07:06:01.720Z,85.75
2022-10-23T07:27:45.690Z,85.82
2022-10-23T07:49:29.423Z,82.83
2022-10-23T08:11:14.500Z,69.63
2022-10-23T08:33:05.063Z,64.64
2022-10-23T08:55:04.756Z,51.51
2022-10-23T09:16:59.396Z,39.89
2022-10-23T09:38:49.475Z,30.65
2022-10-23T10:00:32.516Z,28.74
2022-10-23T10:22:28.564Z,28.92
2022-10-23T10:44:50.923Z,37.14
2022-10-23T11:06:37.645Z,44.27
2022-10-23T11:28:30.941Z,48.98
2022-10-23T11:50:24.651Z,51.56
2022-10-23T12:12:28.034Z,53.98
2022-10-23T12:34:26.087Z,55.74
2022-10-23T12:56:13.832Z,56.78
2022-10-23T13:18:06.436Z,57.24
2022-10-23T13:40:00.913Z,58.73
2022-10-23T14:24:11.455Z,61.70
2022-10-23T14:45:58.074Z,62.77
2022-10-23T15:07:43.823Z,65.25
2022-10-23T15:29:29.502Z,66.70
2022-10-23T15:51:15.222Z,67.93
2022-10-23T16:26:11.984Z,69.92
2022-10-23T16:47:57.699Z,71.69
2022-10-23T17:26:14.010Z,73.43
2022-10-23T17:47:59.733Z,74.11
2022-10-23T18:09:45.686Z,75.55
2022-10-23T18:31:31.803Z,76.19
2022-10-23T18:53:17.606Z,76.54
2022-10-23T19:15:03.340Z,77.12
2022-10-23T19:36:49.742Z,77.00
2022-10-23T19:58:35.833Z,77.06
2022-10-23T20:20:21.549Z,76.89
2022-10-23T20:42:08.515Z,76.90
2022-10-23T21:03:56.318Z,77.02
2022-10-23T21:25:42.971Z,76.76
2022-10-23T21:47:28.933Z,76.96
2022-10-23T22:09:18.964Z,77.83
2022-10-23T22:31:04.950Z,78.88
2022-10-23T22:52:50.748Z,79.32
2022-10-23T23:14:36.691Z,80.38
2022-10-23T23:36:24.998Z,80.89
2022-10-23T23:58:11.064Z,80.91
